Time;durP1;ratioP1;P1;durP2;ratioP2;P2;SDS_P1;SDS_P2;PMS_P1;PMS_P2;Temp;Humidity;BMP_temperature;BMP_pressure;BME280_temperature;BME280_humidity;BME280_pressure;Samples;Min_cycle;Max_cycle;Signal;HPM_P1;HPM_P2
2022/12/14 00:00:41;;;;;;;22.02;11.43;;;;;;;;;;5054828;28;20149;-71
2022/12/14 00:03:08;;;;;;;20.77;11.85;;;;;;;;;;5052868;28;20132;-71
2022/12/14 00:05:35;;;;;;;22.33;11.13;;;;;;;;;;5047802;28;20145;-71
2022/12/14 00:08:01;;;;;;;24.27;12.50;;;;;;;;;;5046301;28;20141;-70
2022/12/14 00:10:28;;;;;;;22.23;11.52;;;;;;;;;;5044382;28;20056;-69
2022/12/14 00:12:54;;;;;;;19.58;11.18;;;;;;;;;;5045415;28;20053;-70
2022/12/14 00:15:21;;;;;;;21.88;11.18;;;;;;;;;;5046517;28;20060;-70
2022/12/14 00:17:47;;;;;;;18.80;10.77;;;;;;;;;;5051071;28;20058;-70
2022/12/14 00:20:14;;;;;;;19.65;10.35;;;;;;;;;;5059231;28;20057;-71
2022/12/14 00:22:40;;;;;;;17.52;11.30;;;;;;;;;;5065641;28;20049;-70
2022/12/14 00:25:07;;;;;;;22.85;11.15;;;;;;;;;;5062405;28;20099;-70
2022/12/14 00:27:33;;;;;;;18.63;10.40;;;;;;;;;;5060255;28;20050;-70
2022/12/14 00:29:59;;;;;;;21.30;11.13;;;;;;;;;;5063227;28;20056;-70
2022/12/14 00:32:26;;;;;;;18.35;10.50;;;;;;;;;;5057786;28;20507;-70
2022/12/14 00:34:52;;;;;;;17.10;9.57;;;;;;;;;;5058534;28;20065;-69
2022/12/14 00:37:18;;;;;;;20.55;11.27;;;;;;;;;;5064171;28;20053;-70
2022/12/14 00:39:45;;;;;;;18.45;9.48;;;;;;;;;;5060281;28;20491;-70
2022/12/14 00:42:11;;;;;;;18.35;10.52;;;;;;;;;;5063425;28;20534;-71
2022/12/14 00:44:37;;;;;;;18.83;10.50;;;;;;;;;;5061209;28;20499;-70
2022/12/14 00:47:04;;;;;;;20.45;11.55;;;;;;;;;;5047367;28;20530;-70
2022/12/14 00:49:30;;;;;;;20.38;10.65;;;;;;;;;;5057315;28;20055;-70
2022/12/14 00:51:56;;;;;;;18.95;10.60;;;;;;;;;;5056709;28;20052;-70
2022/12/14 00:54:23;;;;;;;18.13;10.38;;;;;;;;;;5050789;28;20059;-70
2022/12/14 00:56:49;;;;;;;18.70;10.90;;;;;;;;;;5062307;28;20052;-70
2022/12/14 00:59:16;;;;;;;19.63;11.07;;;;;;;;;;5059571;28;20061;-70
2022/12/14 01:01:43;;;;;;;16.50;9.52;;;;;;;;;;5051104;28;20065;-71
2022/12/14 01:04:18;;;;;;;14.95;9.43;;;;;;;;;;5054558;28;20053;-70
2022/12/14 01:06:46;;;;;;;16.80;9.98;;;;;;;;;;5057971;28;20515;-71
2022/12/14 01:09:12;;;;;;;20.05;10.57;;;;;;;;;;5046269;28;20427;-71
2022/12/14 01:11:39;;;;;;;16.48;8.77;;;;;;;;;;5057726;28;20514;-70
2022/12/14 01:14:06;;;;;;;18.08;10.20;;;;;;;;;;5046410;28;20060;-71
2022/12/14 01:16:33;;;;;;;20.05;10.43;;;;;;;;;;5043761;28;20057;-70
2022/12/14 01:19:00;;;;;;;18.70;9.50;;;;;;;;;;5045196;28;20049;-70
2022/12/14 01:21:27;;;;;;;17.80;9.60;;;;;;;;;;5045617;28;20530;-70
2022/12/14 01:23:54;;;;;;;16.02;10.55;;;;;;;;;;5050687;28;20041;-69
2022/12/14 01:26:21;;;;;;;16.35;9.63;;;;;;;;;;5048910;28;20545;-70
2022/12/14 01:28:52;;;;;;;15.90;8.52;;;;;;;;;;5061343;28;20688;-69
2022/12/14 01:31:20;;;;;;;15.15;9.80;;;;;;;;;;5067809;28;20574;-70
2022/12/14 01:33:47;;;;;;;19.27;9.88;;;;;;;;;;5057210;28;20471;-70
2022/12/14 01:36:15;;;;;;;17.48;10.70;;;;;;;;;;5050296;28;20503;-71
2022/12/14 01:38:41;;;;;;;16.17;9.52;;;;;;;;;;5055586;28;20283;-70
2022/12/14 01:41:15;;;;;;;16.30;9.32;;;;;;;;;;5055901;28;20053;-70
2022/12/14 01:43:49;;;;;;;19.67;10.80;;;;;;;;;;5061813;28;20165;-70
2022/12/14 01:46:18;;;;;;;17.77;10.80;;;;;;;;;;5063384;28;20055;-69
2022/12/14 01:48:46;;;;;;;16.83;9.77;;;;;;;;;;5053551;28;20049;-70
2022/12/14 01:51:12;;;;;;;15.45;9.45;;;;;;;;;;5052331;28;20583;-71
2022/12/14 01:53:39;;;;;;;19.88;11.48;;;;;;;;;;5046288;28;20119;-70
2022/12/14 01:56:06;;;;;;;18.15;9.60;;;;;;;;;;5048058;28;20534;-70
2022/12/14 01:58:32;;;;;;;14.65;9.25;;;;;;;;;;5057567;28;20136;-70
2022/12/14 02:01:00;;;;;;;22.13;11.07;;;;;;;;;;5070093;28;20511;-69
2022/12/14 02:03:31;;;;;;;20.17;10.55;;;;;;;;;;5075856;28;20045;-70
2022/12/14 02:06:05;;;;;;;14.90;9.35;;;;;;;;;;5057229;28;20053;-70
2022/12/14 02:08:31;;;;;;;18.27;9.77;;;;;;;;;;5052525;28;20060;-69
2022/12/14 02:10:58;;;;;;;16.58;10.50;;;;;;;;;;5063490;28;20060;-69
2022/12/14 02:13:30;;;;;;;18.48;9.98;;;;;;;;;;5049922;28;20049;-69
2022/12/14 02:15:56;;;;;;;15.43;9.00;;;;;;;;;;5044985;28;20049;-70
2022/12/14 02:18:24;;;;;;;17.85;9.80;;;;;;;;;;5052652;28;20540;-70
2022/12/14 02:21:02;;;;;;;14.90;9.65;;;;;;;;;;5044117;28;20529;-69
2022/12/14 02:23:47;;;;;;;20.60;10.68;;;;;;;;;;5053013;28;20045;-70
2022/12/14 02:26:19;;;;;;;17.52;10.18;;;;;;;;;;5043157;28;20053;-70
2022/12/14 02:28:45;;;;;;;15.88;9.60;;;;;;;;;;5054437;28;20064;-70
2022/12/14 02:31:16;;;;;;;20.10;11.02;;;;;;;;;;5053538;28;20514;-70
2022/12/14 02:33:56;;;;;;;15.88;9.82;;;;;;;;;;5066241;28;20041;-70
2022/12/14 02:36:40;;;;;;;17.40;10.32;;;;;;;;;;5047996;28;20065;-70
2022/12/14 02:39:24;;;;;;;17.63;10.52;;;;;;;;;;5049094;28;20062;-70
2022/12/14 02:41:59;;;;;;;25.90;11.10;;;;;;;;;;5049557;28;20515;-70
2022/12/14 02:44:33;;;;;;;17.65;9.85;;;;;;;;;;5062040;28;20140;-70
2022/12/14 02:47:18;;;;;;;18.92;10.55;;;;;;;;;;5044850;28;20068;-69
2022/12/14 02:49:47;;;;;;;18.55;10.00;;;;;;;;;;5057372;28;20510;-70
2022/12/14 02:52:14;;;;;;;18.20;10.95;;;;;;;;;;5048310;28;20553;-69
2022/12/14 02:54:45;;;;;;;18.17;9.88;;;;;;;;;;5062888;28;20144;-71
2022/12/14 02:57:18;;;;;;;16.40;9.95;;;;;;;;;;5059432;28;20136;-69
2022/12/14 02:59:45;;;;;;;17.85;10.52;;;;;;;;;;5042484;28;20068;-70
2022/12/14 03:02:13;;;;;;;17.58;9.55;;;;;;;;;;5049568;28;20047;-71
2022/12/14 03:04:44;;;;;;;22.92;12.05;;;;;;;;;;5054458;28;20054;-70
2022/12/14 03:07:23;;;;;;;18.63;10.75;;;;;;;;;;5046529;28;20057;-69
2022/12/14 03:09:50;;;;;;;17.80;10.35;;;;;;;;;;5054500;28;20791;-70
2022/12/14 03:12:19;;;;;;;19.73;10.90;;;;;;;;;;5046300;28;20519;-71
2022/12/14 03:14:49;;;;;;;19.70;10.75;;;;;;;;;;5042897;28;20048;-71
2022/12/14 03:17:23;;;;;;;17.52;10.00;;;;;;;;;;5044862;28;20048;-70
2022/12/14 03:19:52;;;;;;;18.52;11.07;;;;;;;;;;5056967;28;20051;-71
2022/12/14 03:22:32;;;;;;;19.33;11.38;;;;;;;;;;5050975;28;20049;-71
2022/12/14 03:25:01;;;;;;;19.58;10.55;;;;;;;;;;5044427;28;20057;-71
2022/12/14 03:27:36;;;;;;;21.83;11.35;;;;;;;;;;5061802;28;20052;-71
2022/12/14 03:30:11;;;;;;;18.80;10.50;;;;;;;;;;5060041;28;20107;-70
2022/12/14 03:32:39;;;;;;;20.00;10.40;;;;;;;;;;5066307;28;20083;-71
2022/12/14 03:35:12;;;;;;;17.90;10.25;;;;;;;;;;5064676;28;20136;-71
2022/12/14 03:37:47;;;;;;;21.73;11.00;;;;;;;;;;5064853;28;20053;-70
2022/12/14 03:40:21;;;;;;;16.93;10.07;;;;;;;;;;5053220;28;20060;-71
2022/12/14 03:42:57;;;;;;;20.83;10.35;;;;;;;;;;5048244;28;20084;-70
2022/12/14 03:45:35;;;;;;;18.40;10.55;;;;;;;;;;5059053;28;20057;-71
2022/12/14 03:48:10;;;;;;;17.75;9.13;;;;;;;;;;5048432;28;20038;-70
2022/12/14 03:50:42;;;;;;;12.43;7.78;;;;;;;;;;5058196;28;20070;-71
2022/12/14 03:53:12;;;;;;;18.87;9.60;;;;;;;;;;5045488;28;20137;-71
2022/12/14 03:55:57;;;;;;;19.03;10.60;;;;;;;;;;5045975;28;20061;-70
2022/12/14 03:58:23;;;;;;;21.13;10.80;;;;;;;;;;5051889;28;20060;-71
2022/12/14 04:00:50;;;;;;;17.67;9.50;;;;;;;;;;5060345;28;20104;-71
2022/12/14 04:03:48;;;;;;;18.65;10.80;;;;;;;;;;5046279;28;20065;-70
2022/12/14 04:06:20;;;;;;;18.97;10.17;;;;;;;;;;5024533;28;20519;-71
2022/12/14 04:08:52;;;;;;;17.75;10.70;;;;;;;;;;5053657;28;20050;-71
2022/12/14 04:19:48;;;;;;;18.95;10.68;;;;;;;;;;5065571;28;20107;-71
2022/12/14 04:22:20;;;;;;;16.88;9.88;;;;;;;;;;5063602;28;20139;-71
2022/12/14 04:27:38;;;;;;;15.65;9.80;;;;;;;;;;5065059;28;20052;-71
2022/12/14 04:30:06;;;;;;;15.77;9.98;;;;;;;;;;5059157;28;20057;-71
2022/12/14 04:32:35;;;;;;;17.00;10.10;;;;;;;;;;5066446;28;20049;-72
2022/12/14 04:35:05;;;;;;;15.38;10.27;;;;;;;;;;5057033;28;20053;-70
2022/12/14 04:37:34;;;;;;;16.20;9.85;;;;;;;;;;5051902;28;20063;-69
2022/12/14 04:40:20;;;;;;;15.75;10.07;;;;;;;;;;5058029;28;20057;-70
2022/12/14 04:42:49;;;;;;;15.52;9.25;;;;;;;;;;5054304;28;20050;-69
2022/12/14 04:45:19;;;;;;;14.70;9.30;;;;;;;;;;5058809;28;20049;-70
2022/12/14 04:47:50;;;;;;;19.55;10.65;;;;;;;;;;5045127;28;20041;-70
2022/12/14 04:50:21;;;;;;;16.10;9.88;;;;;;;;;;5045404;28;20057;-69
2022/12/14 04:52:51;;;;;;;21.63;11.23;;;;;;;;;;5051445;28;20053;-70
2022/12/14 04:55:22;;;;;;;18.55;9.65;;;;;;;;;;5052171;28;20053;-69
2022/12/14 04:57:54;;;;;;;16.73;10.05;;;;;;;;;;5044893;28;20063;-69
2022/12/14 05:00:21;;;;;;;18.42;9.88;;;;;;;;;;5043629;28;20133;-69
2022/12/14 05:02:57;;;;;;;19.45;10.82;;;;;;;;;;5044267;28;20048;-69
2022/12/14 05:05:59;;;;;;;17.93;10.70;;;;;;;;;;5049610;28;20954;-72
2022/12/14 05:08:32;;;;;;;17.07;10.00;;;;;;;;;;4979846;28;20082;-70
2022/12/14 05:11:02;;;;;;;16.17;10.10;;;;;;;;;;4979896;28;20047;-69
2022/12/14 05:13:49;;;;;;;15.87;9.47;;;;;;;;;;4977786;28;20093;-69
2022/12/14 05:16:19;;;;;;;17.00;9.97;;;;;;;;;;4980891;28;20475;-69
2022/12/14 05:18:46;;;;;;;15.63;9.47;;;;;;;;;;4981716;28;20555;-69
2022/12/14 05:21:45;;;;;;;17.08;9.40;;;;;;;;;;4976214;28;20047;-70
2022/12/14 05:24:00;;;;;;;15.33;9.57;;;;;;;;;;4983461;28;20558;-69
2022/12/14 05:26:27;;;;;;;17.45;9.20;;;;;;;;;;4981692;28;20058;-69
2022/12/14 05:28:53;;;;;;;15.67;8.87;;;;;;;;;;4976889;28;20057;-70
2022/12/14 05:31:20;;;;;;;17.23;9.13;;;;;;;;;;4984365;28;20615;-69
2022/12/14 05:33:46;;;;;;;20.48;9.80;;;;;;;;;;4981581;28;20137;-69
2022/12/14 05:36:12;;;;;;;17.07;8.90;;;;;;;;;;4977118;28;20568;-70
2022/12/14 05:38:40;;;;;;;14.82;8.65;;;;;;;;;;4980837;28;20568;-69
2022/12/14 05:41:06;;;;;;;15.52;8.75;;;;;;;;;;4981740;28;20050;-69
2022/12/14 05:43:32;;;;;;;17.80;8.93;;;;;;;;;;5042156;28;20108;-71
2022/12/14 05:45:59;;;;;;;15.23;8.03;;;;;;;;;;5064777;28;20063;-71
2022/12/14 05:48:25;;;;;;;14.10;8.63;;;;;;;;;;5059917;28;20073;-69
2022/12/14 05:50:52;;;;;;;15.98;10.02;;;;;;;;;;5058832;28;20244;-68
2022/12/14 05:53:18;;;;;;;15.47;8.63;;;;;;;;;;5047780;28;20056;-69
2022/12/14 05:55:50;;;;;;;13.47;8.63;;;;;;;;;;5058193;28;20045;-71
2022/12/14 05:58:17;;;;;;;16.10;9.30;;;;;;;;;;5063954;28;20196;-71
2022/12/14 06:00:43;;;;;;;16.80;8.38;;;;;;;;;;5065711;28;20053;-72
2022/12/14 06:03:09;;;;;;;15.88;9.05;;;;;;;;;;5063906;28;20519;-72
2022/12/14 06:05:36;;;;;;;14.75;8.73;;;;;;;;;;5062652;28;20059;-70
2022/12/14 06:08:02;;;;;;;16.48;8.48;;;;;;;;;;5054828;28;20574;-71
2022/12/14 06:10:29;;;;;;;14.68;9.68;;;;;;;;;;5063797;28;20531;-70
2022/12/14 06:12:55;;;;;;;21.27;8.90;;;;;;;;;;5052070;28;20195;-70
2022/12/14 06:15:22;;;;;;;16.77;8.73;;;;;;;;;;5043203;28;20580;-71
2022/12/14 06:17:49;;;;;;;13.60;8.18;;;;;;;;;;5053462;28;20048;-71
2022/12/14 06:20:15;;;;;;;12.20;8.15;;;;;;;;;;5062605;28;20052;-71
2022/12/14 06:22:41;;;;;;;17.73;9.00;;;;;;;;;;5049758;28;20509;-71
2022/12/14 06:25:12;;;;;;;16.15;9.10;;;;;;;;;;5043109;28;20049;-71
2022/12/14 06:27:39;;;;;;;16.25;9.40;;;;;;;;;;5049707;28;20048;-71
2022/12/14 06:30:06;;;;;;;19.27;9.45;;;;;;;;;;5063354;28;20060;-70
2022/12/14 06:32:32;;;;;;;15.97;8.60;;;;;;;;;;5051504;28;20575;-70
2022/12/14 06:34:59;;;;;;;15.82;9.10;;;;;;;;;;5049929;28;20542;-70
2022/12/14 06:37:25;;;;;;;15.37;8.40;;;;;;;;;;5057365;28;20152;-70
2022/12/14 06:39:51;;;;;;;12.68;8.30;;;;;;;;;;5062650;28;20053;-71
2022/12/14 06:42:19;;;;;;;16.70;9.70;;;;;;;;;;5061749;28;20103;-70
2022/12/14 06:44:46;;;;;;;18.50;10.30;;;;;;;;;;5061810;28;20053;-70
2022/12/14 06:47:12;;;;;;;16.53;10.07;;;;;;;;;;5060927;28;20503;-70
2022/12/14 06:49:39;;;;;;;15.53;9.23;;;;;;;;;;5064760;28;20135;-71
2022/12/14 06:52:05;;;;;;;16.23;9.63;;;;;;;;;;5058771;28;20608;-71
2022/12/14 06:54:31;;;;;;;14.67;9.27;;;;;;;;;;5064561;28;20068;-70
2022/12/14 06:56:58;;;;;;;16.87;9.70;;;;;;;;;;5069392;28;20085;-70
2022/12/14 06:59:24;;;;;;;16.10;9.93;;;;;;;;;;5063143;28;20107;-70
2022/12/14 07:01:50;;;;;;;16.57;9.77;;;;;;;;;;5063490;28;20053;-71
2022/12/14 07:04:19;;;;;;;15.83;8.90;;;;;;;;;;5045813;28;20080;-71
2022/12/14 07:06:46;;;;;;;15.77;9.03;;;;;;;;;;5060186;28;20543;-71
2022/12/14 07:09:12;;;;;;;15.90;9.27;;;;;;;;;;5060281;28;20545;-72
2022/12/14 07:11:39;;;;;;;16.50;8.52;;;;;;;;;;5063019;28;20057;-72
2022/12/14 07:14:06;;;;;;;18.50;9.20;;;;;;;;;;5068520;28;20415;-71
2022/12/14 07:16:33;;;;;;;17.00;9.47;;;;;;;;;;5061639;28;20055;-70
2022/12/14 07:19:00;;;;;;;16.93;9.40;;;;;;;;;;5063025;28;20045;-70
2022/12/14 07:21:26;;;;;;;17.33;10.93;;;;;;;;;;5080182;28;20079;-69
2022/12/14 07:23:53;;;;;;;21.73;12.93;;;;;;;;;;5067853;28;20060;-70
2022/12/14 07:26:20;;;;;;;32.40;18.10;;;;;;;;;;5064682;28;20045;-70
2022/12/14 07:28:46;;;;;;;28.03;16.50;;;;;;;;;;5065760;28;20045;-69
2022/12/14 07:31:14;;;;;;;19.40;12.03;;;;;;;;;;5068962;28;20140;-69
2022/12/14 07:33:41;;;;;;;18.87;10.80;;;;;;;;;;5057112;28;20594;-68
2022/12/14 07:36:11;;;;;;;19.67;10.80;;;;;;;;;;5063633;28;20084;-67
2022/12/14 07:38:38;;;;;;;17.33;10.63;;;;;;;;;;5060285;28;20636;-69
2022/12/14 07:41:15;;;;;;;16.83;10.70;;;;;;;;;;5070964;28;20059;-69
2022/12/14 07:43:47;;;;;;;23.07;10.43;;;;;;;;;;5045623;28;20049;-70
2022/12/14 07:46:16;;;;;;;20.30;10.60;;;;;;;;;;5064335;28;20076;-70
2022/12/14 07:48:48;;;;;;;18.77;10.83;;;;;;;;;;5053566;28;20534;-71
2022/12/14 07:51:15;;;;;;;19.50;10.93;;;;;;;;;;5062396;28;20191;-70
2022/12/14 07:53:42;;;;;;;20.73;11.17;;;;;;;;;;5054374;28;20062;-68
2022/12/14 07:56:10;;;;;;;21.63;11.53;;;;;;;;;;5067330;28;20555;-70
2022/12/14 07:58:37;;;;;;;25.10;12.20;;;;;;;;;;5057050;28;20164;-70
2022/12/14 08:01:26;;;;;;;18.80;11.10;;;;;;;;;;5077073;28;20060;-69
2022/12/14 08:03:54;;;;;;;18.50;11.13;;;;;;;;;;5049328;28;20045;-69
2022/12/14 08:06:22;;;;;;;18.03;10.83;;;;;;;;;;5066748;28;20099;-69
2022/12/14 08:08:49;;;;;;;21.20;11.30;;;;;;;;;;5045091;28;20049;-70
2022/12/14 08:11:15;;;;;;;23.10;11.97;;;;;;;;;;5058882;28;20497;-70
2022/12/14 08:13:42;;;;;;;22.10;12.00;;;;;;;;;;5057436;28;20042;-70
2022/12/14 08:16:13;;;;;;;21.30;12.40;;;;;;;;;;5071523;28;20589;-70
2022/12/14 08:18:40;;;;;;;25.87;11.07;;;;;;;;;;5049236;28;20573;-69
2022/12/14 08:21:07;;;;;;;20.30;11.47;;;;;;;;;;5048561;28;20998;-69
2022/12/14 08:23:34;;;;;;;23.10;12.10;;;;;;;;;;5072195;28;20050;-70
2022/12/14 08:26:01;;;;;;;20.07;11.83;;;;;;;;;;5045255;28;20065;-72
2022/12/14 08:28:28;;;;;;;22.57;12.17;;;;;;;;;;5062033;28;20333;-72
2022/12/14 08:30:55;;;;;;;25.43;12.43;;;;;;;;;;5052082;28;20049;-72
2022/12/14 08:33:21;;;;;;;25.33;13.27;;;;;;;;;;5047625;28;20137;-71
2022/12/14 08:35:48;;;;;;;28.40;13.73;;;;;;;;;;5046714;28;20061;-71
2022/12/14 08:38:14;;;;;;;22.23;12.73;;;;;;;;;;5061774;28;20053;-70
2022/12/14 08:40:41;;;;;;;29.80;13.73;;;;;;;;;;5062029;28;20048;-70
2022/12/14 08:43:08;;;;;;;42.33;20.27;;;;;;;;;;5065045;28;20060;-70
2022/12/14 08:45:35;;;;;;;42.17;19.33;;;;;;;;;;5052204;28;20049;-69
2022/12/14 08:48:02;;;;;;;32.93;18.13;;;;;;;;;;5059036;28;20132;-69
2022/12/14 08:50:28;;;;;;;37.50;19.90;;;;;;;;;;5061481;28;20057;-70
2022/12/14 08:52:54;;;;;;;30.67;16.87;;;;;;;;;;5068603;28;20063;-69
2022/12/14 08:55:22;;;;;;;31.33;16.07;;;;;;;;;;5067787;28;20139;-69
2022/12/14 08:57:54;;;;;;;27.47;14.80;;;;;;;;;;5067130;28;20060;-69
2022/12/14 09:00:20;;;;;;;23.97;14.10;;;;;;;;;;5003645;28;1645865;-69
2022/12/14 09:02:50;;;;;;;31.53;14.70;;;;;;;;;;5072628;28;20175;-68
2022/12/14 09:05:17;;;;;;;27.00;15.13;;;;;;;;;;5060984;28;20067;-68
2022/12/14 09:07:43;;;;;;;24.17;13.80;;;;;;;;;;5071950;28;20053;-68
2022/12/14 09:10:10;;;;;;;22.63;13.23;;;;;;;;;;5053321;28;20053;-69
2022/12/14 09:12:36;;;;;;;25.77;13.40;;;;;;;;;;5059773;28;20057;-70
2022/12/14 09:15:02;;;;;;;26.67;14.13;;;;;;;;;;5045495;28;20060;-69
2022/12/14 09:17:29;;;;;;;19.80;12.87;;;;;;;;;;5059060;28;20053;-68
2022/12/14 09:19:56;;;;;;;25.60;12.77;;;;;;;;;;5048716;28;20556;-69
2022/12/14 09:22:23;;;;;;;26.87;13.90;;;;;;;;;;5062776;28;20108;-70
2022/12/14 09:24:50;;;;;;;24.43;14.73;;;;;;;;;;5055772;28;20054;-69
2022/12/14 09:27:17;;;;;;;26.47;14.03;;;;;;;;;;5047530;28;20072;-72
2022/12/14 09:29:43;;;;;;;26.20;14.63;;;;;;;;;;5070734;28;20091;-69
2022/12/14 09:32:10;;;;;;;31.23;13.37;;;;;;;;;;5068330;28;20132;-70
2022/12/14 09:34:36;;;;;;;23.30;13.23;;;;;;;;;;5069572;28;20041;-71
2022/12/14 09:37:03;;;;;;;27.27;13.73;;;;;;;;;;5050823;28;20056;-72
2022/12/14 09:39:30;;;;;;;26.07;14.93;;;;;;;;;;5052601;28;20053;-72
2022/12/14 09:42:16;;;;;;;22.30;13.47;;;;;;;;;;5054597;28;20080;-70
2022/12/14 09:45:04;;;;;;;23.60;13.27;;;;;;;;;;5063121;28;20107;-70
2022/12/14 09:47:42;;;;;;;26.17;14.03;;;;;;;;;;5063485;28;20045;-72
2022/12/14 09:50:13;;;;;;;31.77;14.53;;;;;;;;;;5063135;28;20044;-71
2022/12/14 09:52:50;;;;;;;25.05;13.25;;;;;;;;;;5057016;28;20052;-71
2022/12/14 09:55:20;;;;;;;32.43;13.90;;;;;;;;;;5076156;28;20052;-71
2022/12/14 09:57:47;;;;;;;24.07;13.77;;;;;;;;;;5074279;28;20060;-71
2022/12/14 10:00:18;;;;;;;26.57;14.10;;;;;;;;;;5062540;28;20073;-69
2022/12/14 10:03:02;;;;;;;30.92;12.65;;;;;;;;;;5054930;28;20060;-70
2022/12/14 10:05:51;;;;;;;25.88;12.55;;;;;;;;;;5042648;28;20153;-70
2022/12/14 10:08:33;;;;;;;24.63;11.93;;;;;;;;;;5053132;28;20110;-70
2022/12/14 10:10:59;;;;;;;22.90;12.77;;;;;;;;;;5062814;28;20045;-69
2022/12/14 10:13:38;;;;;;;18.33;11.70;;;;;;;;;;5060160;28;20053;-69
2022/12/14 10:16:04;;;;;;;18.83;9.83;;;;;;;;;;5046203;28;20111;-69
2022/12/14 10:18:45;;;;;;;21.43;11.30;;;;;;;;;;5054366;28;20065;-72
2022/12/14 10:21:46;;;;;;;22.33;11.60;;;;;;;;;;5059960;28;20561;-69
2022/12/14 10:24:18;;;;;;;19.67;10.57;;;;;;;;;;5063176;28;20053;-69
2022/12/14 10:26:50;;;;;;;18.40;10.93;;;;;;;;;;5071121;28;20584;-69
2022/12/14 10:29:32;;;;;;;22.75;10.93;;;;;;;;;;5062499;28;20499;-69
2022/12/14 10:32:04;;;;;;;17.17;10.70;;;;;;;;;;5062463;28;20045;-70
2022/12/14 10:34:31;;;;;;;20.98;11.48;;;;;;;;;;5058985;28;20758;-70
2022/12/14 10:36:57;;;;;;;23.98;12.20;;;;;;;;;;5059165;28;20086;-70
2022/12/14 10:39:23;;;;;;;30.33;11.13;;;;;;;;;;5061139;28;20056;-70
2022/12/14 10:42:09;;;;;;;22.50;11.35;;;;;;;;;;5062760;28;20076;-71
2022/12/14 10:44:51;;;;;;;22.53;11.13;;;;;;;;;;5061335;28;20087;-70
2022/12/14 10:47:39;;;;;;;21.67;10.98;;;;;;;;;;5047700;28;20264;-69
2022/12/14 10:50:17;;;;;;;21.52;10.85;;;;;;;;;;5042683;28;20111;-70
2022/12/14 10:52:45;;;;;;;20.17;10.87;;;;;;;;;;5048466;28;20055;-71
2022/12/14 10:55:16;;;;;;;22.45;10.40;;;;;;;;;;5061972;28;20115;-70
2022/12/14 10:57:42;;;;;;;16.47;10.07;;;;;;;;;;5062915;28;20517;-70
2022/12/14 11:00:11;;;;;;;17.17;10.20;;;;;;;;;;5051472;28;20045;-70
2022/12/14 11:02:49;;;;;;;20.37;10.30;;;;;;;;;;5049820;28;20131;-70
2022/12/14 11:05:31;;;;;;;17.08;10.20;;;;;;;;;;5076068;28;20613;-70
2022/12/14 11:08:01;;;;;;;;;;;;;;;;;;5051591;28;20095;-70
2022/12/14 11:10:29;;;;;;;19.07;10.27;;;;;;;;;;5060563;28;46511;-70
2022/12/14 11:13:02;;;;;;;17.97;9.77;;;;;;;;;;5060383;28;20427;-70
2022/12/14 11:15:32;;;;;;;18.83;10.80;;;;;;;;;;5048226;28;20526;-70
2022/12/14 11:18:22;;;;;;;19.50;10.73;;;;;;;;;;5063372;28;20474;-70
2022/12/14 11:20:50;;;;;;;18.87;10.40;;;;;;;;;;5048701;28;20049;-70
2022/12/14 11:23:24;;;;;;;19.20;11.60;;;;;;;;;;5050527;28;20633;-70
2022/12/14 11:25:53;;;;;;;26.63;14.40;;;;;;;;;;5062108;28;20499;-70
2022/12/14 11:28:28;;;;;;;20.80;10.73;;;;;;;;;;5061720;28;20065;-70
2022/12/14 11:31:06;;;;;;;17.70;11.53;;;;;;;;;;5061159;28;20056;-70
2022/12/14 11:33:40;;;;;;;23.40;11.43;;;;;;;;;;5079594;28;20039;-70
2022/12/14 11:36:07;;;;;;;22.52;12.70;;;;;;;;;;5073049;28;20053;-70
2022/12/14 11:38:33;;;;;;;22.48;12.18;;;;;;;;;;5061541;28;20049;-70
2022/12/14 11:41:01;;;;;;;24.38;11.73;;;;;;;;;;5061493;28;20542;-70
2022/12/14 11:43:39;;;;;;;21.50;11.68;;;;;;;;;;5062040;28;20041;-70
2022/12/14 11:46:06;;;;;;;22.53;11.90;;;;;;;;;;5060833;28;20053;-70
2022/12/14 11:48:35;;;;;;;20.40;11.20;;;;;;;;;;5057135;28;20045;-70
2022/12/14 11:51:11;;;;;;;21.25;12.80;;;;;;;;;;5058314;28;20064;-69
2022/12/14 11:53:38;;;;;;;25.10;14.38;;;;;;;;;;5071942;28;20056;-69
2022/12/14 11:56:15;;;;;;;28.65;14.18;;;;;;;;;;5083871;28;20592;-70
2022/12/14 11:58:46;;;;;;;30.17;14.90;;;;;;;;;;5061166;28;20127;-69
2022/12/14 12:01:15;;;;;;;24.10;13.25;;;;;;;;;;5074197;28;20136;-69
2022/12/14 12:03:44;;;;;;;20.85;11.75;;;;;;;;;;5068047;28;20060;-70
2022/12/14 12:06:13;;;;;;;18.35;11.27;;;;;;;;;;5059514;28;20060;-69
2022/12/14 12:08:41;;;;;;;25.33;12.43;;;;;;;;;;5067839;28;20069;-69
2022/12/14 12:11:21;;;;;;;18.02;11.10;;;;;;;;;;5050699;28;20081;-69
2022/12/14 12:13:51;;;;;;;24.25;12.93;;;;;;;;;;5047838;28;20060;-69
2022/12/14 12:16:22;;;;;;;20.58;12.52;;;;;;;;;;5043722;28;20057;-69
2022/12/14 12:18:51;;;;;;;21.88;13.43;;;;;;;;;;5054414;28;20061;-70
2022/12/14 12:21:26;;;;;;;24.40;14.27;;;;;;;;;;5053238;28;20554;-70
2022/12/14 12:23:59;;;;;;;21.15;12.45;;;;;;;;;;5068365;28;20044;-70
2022/12/14 12:26:27;;;;;;;20.63;10.82;;;;;;;;;;5084731;28;20080;-70
2022/12/14 12:29:14;;;;;;;21.85;10.20;;;;;;;;;;5083940;28;20500;-69
2022/12/14 12:31:59;;;;;;;14.77;9.52;;;;;;;;;;5075346;28;20507;-69
2022/12/14 12:34:28;;;;;;;20.27;11.18;;;;;;;;;;5058725;28;20054;-68
2022/12/14 12:36:56;;;;;;;19.98;10.10;;;;;;;;;;5049861;28;20072;-68
2022/12/14 12:39:45;;;;;;;15.30;8.88;;;;;;;;;;5064609;28;20103;-68
2022/12/14 12:42:15;;;;;;;13.23;8.10;;;;;;;;;;5044583;28;20540;-68
2022/12/14 12:44:57;;;;;;;16.08;8.85;;;;;;;;;;5051131;28;20596;-68
2022/12/14 12:47:32;;;;;;;13.20;8.00;;;;;;;;;;5064147;28;20057;-68
2022/12/14 12:50:15;;;;;;;14.25;7.93;;;;;;;;;;5060336;28;20050;-68
2022/12/14 12:52:48;;;;;;;16.85;8.48;;;;;;;;;;5043782;28;20057;-68
2022/12/14 12:55:20;;;;;;;12.60;7.55;;;;;;;;;;5070835;28;20552;-67
2022/12/14 12:57:48;;;;;;;18.65;8.95;;;;;;;;;;5073012;28;20138;-70
2022/12/14 13:00:19;;;;;;;13.13;8.35;;;;;;;;;;5069763;28;20057;-70
2022/12/14 13:02:59;;;;;;;16.88;10.10;;;;;;;;;;5061354;28;20056;-69
2022/12/14 13:05:28;;;;;;;16.20;8.90;;;;;;;;;;5055222;28;20064;-69
2022/12/14 13:08:31;;;;;;;15.32;8.55;;;;;;;;;;5046973;28;20523;-71
2022/12/14 13:11:00;;;;;;;21.63;9.55;;;;;;;;;;5061981;28;20053;-70
2022/12/14 13:13:49;;;;;;;19.90;10.55;;;;;;;;;;5063610;28;20057;-70
2022/12/14 13:16:24;;;;;;;16.15;9.25;;;;;;;;;;5051955;28;20872;-70
2022/12/14 13:18:58;;;;;;;14.57;8.57;;;;;;;;;;5057557;28;20106;-70
2022/12/14 13:21:49;;;;;;;16.63;8.80;;;;;;;;;;5058500;28;20041;-69
2022/12/14 13:24:17;;;;;;;10.88;7.35;;;;;;;;;;5063509;28;20068;-69
2022/12/14 13:27:03;;;;;;;13.93;8.60;;;;;;;;;;5063337;28;20059;-69
2022/12/14 13:29:42;;;;;;;14.50;8.27;;;;;;;;;;5063650;28;20049;-69
2022/12/14 13:32:17;;;;;;;15.35;8.30;;;;;;;;;;5060778;28;20053;-69
2022/12/14 13:35:02;;;;;;;13.75;7.90;;;;;;;;;;5073495;28;20056;-69
2022/12/14 13:37:43;;;;;;;13.82;7.63;;;;;;;;;;5056503;28;20052;-70
2022/12/14 13:40:27;;;;;;;17.10;8.52;;;;;;;;;;5058603;28;20045;-70
2022/12/14 13:42:53;;;;;;;14.93;8.40;;;;;;;;;;5086781;28;20049;-71
2022/12/14 13:45:28;;;;;;;14.88;8.68;;;;;;;;;;5060712;28;20080;-71
2022/12/14 13:47:56;;;;;;;12.85;7.53;;;;;;;;;;5062374;28;20088;-72
2022/12/14 13:50:27;;;;;;;15.35;9.00;;;;;;;;;;5059560;28;20487;-70
2022/12/14 13:53:12;;;;;;;12.65;6.78;;;;;;;;;;5070583;28;20076;-71
2022/12/14 13:55:47;;;;;;;13.68;7.45;;;;;;;;;;5055546;28;20519;-72
2022/12/14 13:58:37;;;;;;;15.18;7.57;;;;;;;;;;5063843;28;20056;-70
2022/12/14 14:01:08;;;;;;;16.00;8.82;;;;;;;;;;5040695;28;20119;-68
2022/12/14 14:03:35;;;;;;;13.20;8.30;;;;;;;;;;5055431;28;20550;-71
2022/12/14 14:06:13;;;;;;;15.15;8.50;;;;;;;;;;5050562;28;20071;-69
2022/12/14 14:08:50;;;;;;;12.65;7.72;;;;;;;;;;5062672;28;20041;-68
2022/12/14 14:11:16;;;;;;;15.85;8.35;;;;;;;;;;5061542;28;20535;-70
2022/12/14 14:14:11;;;;;;;14.55;9.63;;;;;;;;;;5061728;28;20049;-69
2022/12/14 14:16:44;;;;;;;24.25;10.43;;;;;;;;;;5057066;28;20053;-68
2022/12/14 14:19:10;;;;;;;11.82;8.15;;;;;;;;;;5057355;28;20048;-69
2022/12/14 14:21:41;;;;;;;15.48;8.57;;;;;;;;;;5060718;28;20049;-70
2022/12/14 14:24:28;;;;;;;17.48;9.10;;;;;;;;;;5057398;28;20056;-70
2022/12/14 14:27:08;;;;;;;15.70;7.70;;;;;;;;;;5066501;28;20049;-68
2022/12/14 14:29:35;;;;;;;17.25;10.45;;;;;;;;;;5064049;28;20049;-68
2022/12/14 14:32:01;;;;;;;21.73;11.70;;;;;;;;;;5058917;28;20056;-68
2022/12/14 14:34:33;;;;;;;22.13;9.70;;;;;;;;;;5059330;28;20046;-69
2022/12/14 14:37:11;;;;;;;13.98;8.65;;;;;;;;;;5059841;28;20053;-69
2022/12/14 14:39:38;;;;;;;18.58;8.63;;;;;;;;;;5069021;28;20088;-68
2022/12/14 14:42:26;;;;;;;13.55;7.78;;;;;;;;;;5066936;28;20514;-70
2022/12/14 14:44:57;;;;;;;13.27;8.45;;;;;;;;;;5050978;28;20503;-69
2022/12/14 14:47:26;;;;;;;17.40;9.15;;;;;;;;;;5060909;28;20136;-69
2022/12/14 14:49:55;;;;;;;20.63;9.30;;;;;;;;;;5066403;28;20045;-69
2022/12/14 14:52:43;;;;;;;14.10;7.90;;;;;;;;;;5059911;28;20065;-68
2022/12/14 14:55:35;;;;;;;14.75;8.93;;;;;;;;;;5054156;28;20080;-68
2022/12/14 14:58:21;;;;;;;13.95;8.80;;;;;;;;;;5055736;28;20057;-69